sensor_id;sensor_type;location;lat;lon;timestamp;temperature;humidity
4090;DHT22;2059;48.538;12.146;2023-03-02T00:03:44;4.00;95.80
4090;DHT22;2059;48.538;12.146;2023-03-02T00:08:47;4.10;95.90
4090;DHT22;2059;48.538;12.146;2023-03-02T00:13:48;4.00;96.10
4090;DHT22;2059;48.538;12.146;2023-03-02T00:18:50;4.10;96.00
4090;DHT22;2059;48.538;12.146;2023-03-02T00:23:54;4.10;96.00
4090;DHT22;2059;48.538;12.146;2023-03-02T00:28:55;4.00;96.00
4090;DHT22;2059;48.538;12.146;2023-03-02T00:33:57;3.90;96.10
4090;DHT22;2059;48.538;12.146;2023-03-02T00:39:00;4.10;96.00
4090;DHT22;2059;48.538;12.146;2023-03-02T00:44:03;3.90;96.20
4090;DHT22;2059;48.538;12.146;2023-03-02T00:49:05;3.90;96.30
4090;DHT22;2059;48.538;12.146;2023-03-02T00:54:09;4.00;96.30
4090;DHT22;2059;48.538;12.146;2023-03-02T00:59:12;3.90;96.30
4090;DHT22;2059;48.538;12.146;2023-03-02T01:04:26;3.80;96.60
4090;DHT22;2059;48.538;12.146;2023-03-02T01:09:30;3.70;96.50
4090;DHT22;2059;48.538;12.146;2023-03-02T01:14:32;3.70;96.50
4090;DHT22;2059;48.538;12.146;2023-03-02T01:19:34;3.90;96.60
4090;DHT22;2059;48.538;12.146;2023-03-02T01:24:37;4.00;96.50
4090;DHT22;2059;48.538;12.146;2023-03-02T01:29:39;3.80;96.60
4090;DHT22;2059;48.538;12.146;2023-03-02T01:34:41;3.70;96.70
4090;DHT22;2059;48.538;12.146;2023-03-02T01:39:44;3.80;96.80
4090;DHT22;2059;48.538;12.146;2023-03-02T01:44:49;4.10;96.70
4090;DHT22;2059;48.538;12.146;2023-03-02T01:49:54;4.10;96.40
4090;DHT22;2059;48.538;12.146;2023-03-02T01:55:02;3.80;96.70
4090;DHT22;2059;48.538;12.146;2023-03-02T02:00:06;3.80;96.90
4090;DHT22;2059;48.538;12.146;2023-03-02T02:05:12;3.80;96.80
4090;DHT22;2059;48.538;12.146;2023-03-02T02:10:16;3.80;96.90
4090;DHT22;2059;48.538;12.146;2023-03-02T02:15:18;3.80;96.80
4090;DHT22;2059;48.538;12.146;2023-03-02T02:20:27;3.70;97.10
4090;DHT22;2059;48.538;12.146;2023-03-02T02:25:42;3.40;97.20
4090;DHT22;2059;48.538;12.146;2023-03-02T02:30:47;3.60;97.20
4090;DHT22;2059;48.538;12.146;2023-03-02T02:35:59;3.70;96.80
4090;DHT22;2059;48.538;12.146;2023-03-02T02:41:03;3.60;96.90
4090;DHT22;2059;48.538;12.146;2023-03-02T02:46:10;3.40;97.00
4090;DHT22;2059;48.538;12.146;2023-03-02T02:51:20;3.30;97.20
4090;DHT22;2059;48.538;12.146;2023-03-02T02:56:25;3.40;97.10
4090;DHT22;2059;48.538;12.146;2023-03-02T03:01:29;3.40;97.10
4090;DHT22;2059;48.538;12.146;2023-03-02T03:06:32;3.20;97.30
4090;DHT22;2059;48.538;12.146;2023-03-02T03:11:39;3.40;97.40
4090;DHT22;2059;48.538;12.146;2023-03-02T03:16:44;3.20;97.70
4090;DHT22;2059;48.538;12.146;2023-03-02T03:21:48;3.00;98.30
4090;DHT22;2059;48.538;12.146;2023-03-02T03:26:51;3.20;98.20
4090;DHT22;2059;48.538;12.146;2023-03-02T03:31:56;3.40;98.10
4090;DHT22;2059;48.538;12.146;2023-03-02T03:36:58;3.50;97.80
4090;DHT22;2059;48.538;12.146;2023-03-02T03:42:01;3.50;98.00
4090;DHT22;2059;48.538;12.146;2023-03-02T03:47:04;3.40;98.10
4090;DHT22;2059;48.538;12.146;2023-03-02T03:52:06;3.50;98.40
4090;DHT22;2059;48.538;12.146;2023-03-02T03:57:08;3.30;99.10
4090;DHT22;2059;48.538;12.146;2023-03-02T04:02:12;3.50;99.10
4090;DHT22;2059;48.538;12.146;2023-03-02T04:07:15;3.60;98.70
4090;DHT22;2059;48.538;12.146;2023-03-02T04:12:17;3.60;98.90
4090;DHT22;2059;48.538;12.146;2023-03-02T04:17:20;3.50;98.90
4090;DHT22;2059;48.538;12.146;2023-03-02T04:22:21;3.60;99.00
4090;DHT22;2059;48.538;12.146;2023-03-02T04:27:23;3.70;98.90
4090;DHT22;2059;48.538;12.146;2023-03-02T04:32:26;3.70;98.70
4090;DHT22;2059;48.538;12.146;2023-03-02T04:37:28;3.60;99.10
4090;DHT22;2059;48.538;12.146;2023-03-02T04:42:30;3.70;99.10
4090;DHT22;2059;48.538;12.146;2023-03-02T04:47:33;3.70;98.90
4090;DHT22;2059;48.538;12.146;2023-03-02T04:52:35;3.90;98.70
4090;DHT22;2059;48.538;12.146;2023-03-02T04:57:37;3.90;98.50
4090;DHT22;2059;48.538;12.146;2023-03-02T05:02:40;3.70;98.70
4090;DHT22;2059;48.538;12.146;2023-03-02T05:07:42;3.70;98.50
4090;DHT22;2059;48.538;12.146;2023-03-02T05:12:44;3.50;98.60
4090;DHT22;2059;48.538;12.146;2023-03-02T05:17:59;3.40;98.60
4090;DHT22;2059;48.538;12.146;2023-03-02T05:23:03;3.40;98.80
4090;DHT22;2059;48.538;12.146;2023-03-02T05:28:05;3.50;98.70
4090;DHT22;2059;48.538;12.146;2023-03-02T05:33:09;3.30;98.90
4090;DHT22;2059;48.538;12.146;2023-03-02T05:38:11;3.40;98.70
4090;DHT22;2059;48.538;12.146;2023-03-02T05:43:15;3.30;98.70
4090;DHT22;2059;48.538;12.146;2023-03-02T05:48:18;3.30;98.80
4090;DHT22;2059;48.538;12.146;2023-03-02T05:53:20;3.50;98.70
4090;DHT22;2059;48.538;12.146;2023-03-02T05:58:22;3.20;99.10
4090;DHT22;2059;48.538;12.146;2023-03-02T06:03:25;3.10;99.40
4090;DHT22;2059;48.538;12.146;2023-03-02T06:08:26;3.20;99.20
4090;DHT22;2059;48.538;12.146;2023-03-02T06:13:28;3.20;99.20
4090;DHT22;2059;48.538;12.146;2023-03-02T06:18:31;3.40;99.20
4090;DHT22;2059;48.538;12.146;2023-03-02T06:23:33;3.50;98.80
4090;DHT22;2059;48.538;12.146;2023-03-02T06:28:35;3.40;99.00
4090;DHT22;2059;48.538;12.146;2023-03-02T06:33:39;3.60;98.80
4090;DHT22;2059;48.538;12.146;2023-03-02T06:38:40;3.60;98.90
4090;DHT22;2059;48.538;12.146;2023-03-02T06:43:42;3.60;99.00
4090;DHT22;2059;48.538;12.146;2023-03-02T06:48:45;3.60;99.20
4090;DHT22;2059;48.538;12.146;2023-03-02T06:53:47;3.90;99.00
4090;DHT22;2059;48.538;12.146;2023-03-02T06:58:49;4.10;98.80
4090;DHT22;2059;48.538;12.146;2023-03-02T07:03:52;4.20;99.00
4090;DHT22;2059;48.538;12.146;2023-03-02T07:08:54;4.20;98.70
4090;DHT22;2059;48.538;12.146;2023-03-02T07:13:56;4.40;98.50
4090;DHT22;2059;48.538;12.146;2023-03-02T07:19:01;4.60;98.50
4090;DHT22;2059;48.538;12.146;2023-03-02T07:24:03;4.90;98.30
4090;DHT22;2059;48.538;12.146;2023-03-02T07:29:05;5.30;97.90
4090;DHT22;2059;48.538;12.146;2023-03-02T07:34:08;5.40;97.80
4090;DHT22;2059;48.538;12.146;2023-03-02T07:39:10;5.60;97.70
4090;DHT22;2059;48.538;12.146;2023-03-02T07:44:11;6.00;97.40
4090;DHT22;2059;48.538;12.146;2023-03-02T07:49:15;6.40;97.00
4090;DHT22;2059;48.538;12.146;2023-03-02T07:54:16;6.80;96.20
4090;DHT22;2059;48.538;12.146;2023-03-02T07:59:18;6.70;96.00
4090;DHT22;2059;48.538;12.146;2023-03-02T08:04:22;6.90;96.10
4090;DHT22;2059;48.538;12.146;2023-03-02T08:09:24;7.00;95.90
4090;DHT22;2059;48.538;12.146;2023-03-02T08:14:26;6.90;95.90
4090;DHT22;2059;48.538;12.146;2023-03-02T08:19:29;7.50;95.60
4090;DHT22;2059;48.538;12.146;2023-03-02T08:24:30;7.70;94.90
4090;DHT22;2059;48.538;12.146;2023-03-02T08:29:32;8.10;94.60
4090;DHT22;2059;48.538;12.146;2023-03-02T08:34:35;8.50;94.50
4090;DHT22;2059;48.538;12.146;2023-03-02T08:39:37;8.60;93.80
4090;DHT22;2059;48.538;12.146;2023-03-02T08:44:39;8.90;93.60
4090;DHT22;2059;48.538;12.146;2023-03-02T08:49:42;8.90;93.50
4090;DHT22;2059;48.538;12.146;2023-03-02T08:54:44;8.90;93.40
4090;DHT22;2059;48.538;12.146;2023-03-02T08:59:45;8.80;93.20
4090;DHT22;2059;48.538;12.146;2023-03-02T09:04:48;9.20;93.50
4090;DHT22;2059;48.538;12.146;2023-03-02T09:09:50;9.80;92.90
4090;DHT22;2059;48.538;12.146;2023-03-02T09:14:52;9.30;92.80
4090;DHT22;2059;48.538;12.146;2023-03-02T09:19:55;9.40;92.80
4090;DHT22;2059;48.538;12.146;2023-03-02T09:24:57;9.60;93.10
4090;DHT22;2059;48.538;12.146;2023-03-02T09:29:58;9.80;92.50
4090;DHT22;2059;48.538;12.146;2023-03-02T09:35:02;9.80;92.60
4090;DHT22;2059;48.538;12.146;2023-03-02T09:40:08;10.50;91.60
4090;DHT22;2059;48.538;12.146;2023-03-02T09:45:18;11.00;90.60
4090;DHT22;2059;48.538;12.146;2023-03-02T09:50:30;10.80;90.50
4090;DHT22;2059;48.538;12.146;2023-03-02T09:55:34;11.30;90.20
4090;DHT22;2059;48.538;12.146;2023-03-02T10:00:39;11.50;90.30
4090;DHT22;2059;48.538;12.146;2023-03-02T10:05:46;11.70;89.10
4090;DHT22;2059;48.538;12.146;2023-03-02T10:10:53;11.90;89.40
4090;DHT22;2059;48.538;12.146;2023-03-02T10:16:06;11.40;89.80
4090;DHT22;2059;48.538;12.146;2023-03-02T10:21:15;12.10;88.50
4090;DHT22;2059;48.538;12.146;2023-03-02T10:26:28;12.60;87.90
4090;DHT22;2059;48.538;12.146;2023-03-02T10:31:32;12.50;86.70
4090;DHT22;2059;48.538;12.146;2023-03-02T10:36:38;12.30;87.00
4090;DHT22;2059;48.538;12.146;2023-03-02T10:41:45;12.30;87.30
4090;DHT22;2059;48.538;12.146;2023-03-02T10:46:49;12.90;86.80
4090;DHT22;2059;48.538;12.146;2023-03-02T10:51:59;12.90;86.10
4090;DHT22;2059;48.538;12.146;2023-03-02T10:57:04;13.00;85.30
4090;DHT22;2059;48.538;12.146;2023-03-02T11:02:20;13.30;85.60
4090;DHT22;2059;48.538;12.146;2023-03-02T11:07:25;13.40;85.00
4090;DHT22;2059;48.538;12.146;2023-03-02T11:12:29;13.10;84.50
4090;DHT22;2059;48.538;12.146;2023-03-02T11:17:33;12.80;85.00
4090;DHT22;2059;48.538;12.146;2023-03-02T11:22:45;12.70;84.60
4090;DHT22;2059;48.538;12.146;2023-03-02T11:27:53;12.60;84.70
4090;DHT22;2059;48.538;12.146;2023-03-02T11:32:59;13.30;84.40
4090;DHT22;2059;48.538;12.146;2023-03-02T11:38:12;13.50;83.00
4090;DHT22;2059;48.538;12.146;2023-03-02T11:43:17;13.30;84.00
4090;DHT22;2059;48.538;12.146;2023-03-02T11:48:21;13.40;83.80
4090;DHT22;2059;48.538;12.146;2023-03-02T11:53:29;13.60;84.10
4090;DHT22;2059;48.538;12.146;2023-03-02T11:58:42;14.20;81.60
4090;DHT22;2059;48.538;12.146;2023-03-02T12:03:46;14.10;81.10
4090;DHT22;2059;48.538;12.146;2023-03-02T12:08:52;14.10;81.00
4090;DHT22;2059;48.538;12.146;2023-03-02T12:13:58;13.80;81.60
4090;DHT22;2059;48.538;12.146;2023-03-02T12:19:11;13.90;81.30
4090;DHT22;2059;48.538;12.146;2023-03-02T12:24:33;14.40;80.40
4090;DHT22;2059;48.538;12.146;2023-03-02T12:29:40;14.60;80.10
4090;DHT22;2059;48.538;12.146;2023-03-02T12:34:44;15.10;80.20
4090;DHT22;2059;48.538;12.146;2023-03-02T12:40:28;15.00;80.90
4090;DHT22;2059;48.538;12.146;2023-03-02T12:45:44;15.40;78.90
4090;DHT22;2059;48.538;12.146;2023-03-02T12:50:47;15.20;77.40
4090;DHT22;2059;48.538;12.146;2023-03-02T12:55:50;15.40;78.30
4090;DHT22;2059;48.538;12.146;2023-03-02T13:00:55;14.80;78.60
4090;DHT22;2059;48.538;12.146;2023-03-02T13:06:01;15.00;78.10
4090;DHT22;2059;48.538;12.146;2023-03-02T13:11:04;14.80;78.70
4090;DHT22;2059;48.538;12.146;2023-03-02T13:16:18;15.30;79.90
4090;DHT22;2059;48.538;12.146;2023-03-02T13:21:26;15.50;78.40
4090;DHT22;2059;48.538;12.146;2023-03-02T13:26:31;15.80;76.80
4090;DHT22;2059;48.538;12.146;2023-03-02T13:31:34;15.20;76.80
4090;DHT22;2059;48.538;12.146;2023-03-02T13:36:36;15.00;77.60
4090;DHT22;2059;48.538;12.146;2023-03-02T13:41:39;14.80;78.30
4090;DHT22;2059;48.538;12.146;2023-03-02T13:46:51;14.60;78.10
4090;DHT22;2059;48.538;12.146;2023-03-02T13:51:59;14.90;78.00
4090;DHT22;2059;48.538;12.146;2023-03-02T13:57:04;15.00;77.80
4090;DHT22;2059;48.538;12.146;2023-03-02T14:02:23;15.00;77.90
4090;DHT22;2059;48.538;12.146;2023-03-02T14:07:25;14.70;78.30
4090;DHT22;2059;48.538;12.146;2023-03-02T14:12:29;14.80;76.90
4090;DHT22;2059;48.538;12.146;2023-03-02T14:17:32;14.60;78.30
4090;DHT22;2059;48.538;12.146;2023-03-02T14:22:34;14.60;79.00
4090;DHT22;2059;48.538;12.146;2023-03-02T14:27:37;14.50;78.70
4090;DHT22;2059;48.538;12.146;2023-03-02T14:32:39;14.40;78.40
4090;DHT22;2059;48.538;12.146;2023-03-02T14:37:43;14.30;79.50
4090;DHT22;2059;48.538;12.146;2023-03-02T14:42:47;14.60;79.80
4090;DHT22;2059;48.538;12.146;2023-03-02T14:47:51;14.60;78.70
4090;DHT22;2059;48.538;12.146;2023-03-02T14:52:54;14.50;78.60
4090;DHT22;2059;48.538;12.146;2023-03-02T14:57:59;14.40;79.80
4090;DHT22;2059;48.538;12.146;2023-03-02T15:03:02;14.30;79.70
4090;DHT22;2059;48.538;12.146;2023-03-02T15:08:04;14.40;79.80
4090;DHT22;2059;48.538;12.146;2023-03-02T15:13:08;14.40;79.40
4090;DHT22;2059;48.538;12.146;2023-03-02T15:18:12;14.30;80.00
4090;DHT22;2059;48.538;12.146;2023-03-02T15:23:16;14.10;79.90
4090;DHT22;2059;48.538;12.146;2023-03-02T15:28:19;14.30;80.40
4090;DHT22;2059;48.538;12.146;2023-03-02T15:33:21;15.50;77.30
4090;DHT22;2059;48.538;12.146;2023-03-02T15:38:23;16.40;75.60
4090;DHT22;2059;48.538;12.146;2023-03-02T15:43:26;16.80;73.60
4090;DHT22;2059;48.538;12.146;2023-03-02T15:48:28;16.00;75.20
4090;DHT22;2059;48.538;12.146;2023-03-02T15:53:32;16.30;75.30
4090;DHT22;2059;48.538;12.146;2023-03-02T15:58:36;18.00;71.70
4090;DHT22;2059;48.538;12.146;2023-03-02T16:03:38;18.50;70.70
4090;DHT22;2059;48.538;12.146;2023-03-02T16:08:39;19.70;67.30
4090;DHT22;2059;48.538;12.146;2023-03-02T16:13:43;20.00;66.70
4090;DHT22;2059;48.538;12.146;2023-03-02T16:18:49;19.90;66.60
4090;DHT22;2059;48.538;12.146;2023-03-02T16:23:51;18.50;69.00
4090;DHT22;2059;48.538;12.146;2023-03-02T16:28:54;17.40;71.30
4090;DHT22;2059;48.538;12.146;2023-03-02T16:33:56;16.40;72.80
4090;DHT22;2059;48.538;12.146;2023-03-02T16:38:58;15.60;74.30
4090;DHT22;2059;48.538;12.146;2023-03-02T16:44:01;15.00;75.10
4090;DHT22;2059;48.538;12.146;2023-03-02T16:49:04;14.30;76.60
4090;DHT22;2059;48.538;12.146;2023-03-02T16:54:06;13.70;78.10
4090;DHT22;2059;48.538;12.146;2023-03-02T16:59:09;13.50;79.40
4090;DHT22;2059;48.538;12.146;2023-03-02T17:04:11;13.20;79.30
4090;DHT22;2059;48.538;12.146;2023-03-02T17:09:13;12.70;79.90
4090;DHT22;2059;48.538;12.146;2023-03-02T17:14:16;12.50;80.80
4090;DHT22;2059;48.538;12.146;2023-03-02T17:19:17;12.30;81.40
4090;DHT22;2059;48.538;12.146;2023-03-02T17:24:19;12.10;82.00
4090;DHT22;2059;48.538;12.146;2023-03-02T17:29:22;12.00;82.90
4090;DHT22;2059;48.538;12.146;2023-03-02T17:34:24;11.60;83.40
4090;DHT22;2059;48.538;12.146;2023-03-02T17:39:30;11.50;84.10
4090;DHT22;2059;48.538;12.146;2023-03-02T17:44:33;11.40;84.30
4090;DHT22;2059;48.538;12.146;2023-03-02T17:49:37;11.40;84.60
4090;DHT22;2059;48.538;12.146;2023-03-02T17:54:38;11.30;84.90
4090;DHT22;2059;48.538;12.146;2023-03-02T17:59:41;11.20;85.20
4090;DHT22;2059;48.538;12.146;2023-03-02T18:04:45;11.10;85.30
4090;DHT22;2059;48.538;12.146;2023-03-02T18:09:47;11.00;85.60
4090;DHT22;2059;48.538;12.146;2023-03-02T18:14:50;10.80;86.30
4090;DHT22;2059;48.538;12.146;2023-03-02T18:19:51;10.60;86.50
4090;DHT22;2059;48.538;12.146;2023-03-02T18:24:53;10.60;87.10
4090;DHT22;2059;48.538;12.146;2023-03-02T18:29:56;10.50;87.70
4090;DHT22;2059;48.538;12.146;2023-03-02T18:34:58;10.30;88.90
4090;DHT22;2059;48.538;12.146;2023-03-02T18:40:00;10.30;89.50
4090;DHT22;2059;48.538;12.146;2023-03-02T18:45:05;10.30;89.50
4090;DHT22;2059;48.538;12.146;2023-03-02T18:50:09;10.10;89.60
4090;DHT22;2059;48.538;12.146;2023-03-02T18:55:11;9.80;90.60
4090;DHT22;2059;48.538;12.146;2023-03-02T19:00:19;9.80;90.90
4090;DHT22;2059;48.538;12.146;2023-03-02T19:05:22;9.60;91.00
4090;DHT22;2059;48.538;12.146;2023-03-02T19:10:26;9.50;91.40
4090;DHT22;2059;48.538;12.146;2023-03-02T19:15:29;9.40;91.60
4090;DHT22;2059;48.538;12.146;2023-03-02T19:20:33;9.20;91.80
4090;DHT22;2059;48.538;12.146;2023-03-02T19:25:34;8.90;92.20
4090;DHT22;2059;48.538;12.146;2023-03-02T19:30:38;8.90;92.50
4090;DHT22;2059;48.538;12.146;2023-03-02T19:35:41;8.80;92.90
4090;DHT22;2059;48.538;12.146;2023-03-02T19:40:43;8.50;93.00
4090;DHT22;2059;48.538;12.146;2023-03-02T19:45:46;7.90;94.00
4090;DHT22;2059;48.538;12.146;2023-03-02T19:50:48;7.90;94.20
4090;DHT22;2059;48.538;12.146;2023-03-02T19:55:51;7.80;94.20
4090;DHT22;2059;48.538;12.146;2023-03-02T20:00:54;7.40;95.10
4090;DHT22;2059;48.538;12.146;2023-03-02T20:05:56;6.80;96.50
4090;DHT22;2059;48.538;12.146;2023-03-02T20:10:59;6.90;96.50
4090;DHT22;2059;48.538;12.146;2023-03-02T20:16:02;6.90;96.60
4090;DHT22;2059;48.538;12.146;2023-03-02T20:21:04;6.80;96.70
4090;DHT22;2059;48.538;12.146;2023-03-02T20:26:06;6.80;97.00
4090;DHT22;2059;48.538;12.146;2023-03-02T20:31:11;6.70;97.50
4090;DHT22;2059;48.538;12.146;2023-03-02T20:36:16;6.60;97.40
4090;DHT22;2059;48.538;12.146;2023-03-02T20:41:18;6.40;97.70
4090;DHT22;2059;48.538;12.146;2023-03-02T20:46:25;6.50;97.70
4090;DHT22;2059;48.538;12.146;2023-03-02T20:51:27;6.40;97.70
4090;DHT22;2059;48.538;12.146;2023-03-02T20:56:30;6.60;97.40
4090;DHT22;2059;48.538;12.146;2023-03-02T21:01:33;6.50;97.50
4090;DHT22;2059;48.538;12.146;2023-03-02T21:06:35;6.40;97.60
4090;DHT22;2059;48.538;12.146;2023-03-02T21:11:37;6.10;97.90
4090;DHT22;2059;48.538;12.146;2023-03-02T21:16:42;6.40;97.60
4090;DHT22;2059;48.538;12.146;2023-03-02T21:21:44;6.00;98.00
4090;DHT22;2059;48.538;12.146;2023-03-02T21:26:49;5.50;99.00
4090;DHT22;2059;48.538;12.146;2023-03-02T21:31:52;5.70;98.70
4090;DHT22;2059;48.538;12.146;2023-03-02T21:36:54;5.70;98.70
4090;DHT22;2059;48.538;12.146;2023-03-02T21:41:57;5.80;98.40
4090;DHT22;2059;48.538;12.146;2023-03-02T21:47:01;6.10;98.20
4090;DHT22;2059;48.538;12.146;2023-03-02T21:52:02;5.70;98.50
4090;DHT22;2059;48.538;12.146;2023-03-02T21:57:05;5.50;98.40
4090;DHT22;2059;48.538;12.146;2023-03-02T22:02:10;5.40;98.80
4090;DHT22;2059;48.538;12.146;2023-03-02T22:07:12;5.20;99.00
4090;DHT22;2059;48.538;12.146;2023-03-02T22:12:14;4.90;99.50
4090;DHT22;2059;48.538;12.146;2023-03-02T22:17:20;4.80;99.80
4090;DHT22;2059;48.538;12.146;2023-03-02T22:22:24;4.50;99.90
4090;DHT22;2059;48.538;12.146;2023-03-02T22:27:28;4.70;99.90
4090;DHT22;2059;48.538;12.146;2023-03-02T22:32:35;5.10;99.30
4090;DHT22;2059;48.538;12.146;2023-03-02T22:48:40;4.20;99.90
4090;DHT22;2059;48.538;12.146;2023-03-02T22:53:46;4.40;99.90
4090;DHT22;2059;48.538;12.146;2023-03-02T22:58:49;4.00;99.90
4090;DHT22;2059;48.538;12.146;2023-03-02T23:03:56;4.20;99.90
4090;DHT22;2059;48.538;12.146;2023-03-02T23:08:59;4.20;99.90
4090;DHT22;2059;48.538;12.146;2023-03-02T23:14:09;4.10;99.90
4090;DHT22;2059;48.538;12.146;2023-03-02T23:19:12;4.10;99.90
4090;DHT22;2059;48.538;12.146;2023-03-02T23:24:14;3.90;99.90
4090;DHT22;2059;48.538;12.146;2023-03-02T23:29:18;4.20;99.90
4090;DHT22;2059;48.538;12.146;2023-03-02T23:34:22;4.00;99.90
4090;DHT22;2059;48.538;12.146;2023-03-02T23:39:24;3.40;99.90
4090;DHT22;2059;48.538;12.146;2023-03-02T23:44:26;3.60;99.90
4090;DHT22;2059;48.538;12.146;2023-03-02T23:49:29;3.40;99.90
4090;DHT22;2059;48.538;12.146;2023-03-02T23:54:31;3.60;99.90
4090;DHT22;2059;48.538;12.146;2023-03-02T23:59:33;3.30;99.90
